sensor_id;sensor_type;location;lat;lon;timestamp;temperature;humidity
6520;DHT22;3293;51.690;5.982;2023-05-10T00:02:13;13.30;99.90
6520;DHT22;3293;51.690;5.982;2023-05-10T00:07:13;13.30;99.90
6520;DHT22;3293;51.690;5.982;2023-05-10T00:12:13;13.30;99.90
6520;DHT22;3293;51.690;5.982;2023-05-10T00:17:14;13.30;99.90
6520;DHT22;3293;51.690;5.982;2023-05-10T00:22:15;13.30;99.90
6520;DHT22;3293;51.690;5.982;2023-05-10T00:27:15;13.30;99.90
6520;DHT22;3293;51.690;5.982;2023-05-10T00:32:15;13.30;99.90
6520;DHT22;3293;51.690;5.982;2023-05-10T00:37:15;13.30;99.90
6520;DHT22;3293;51.690;5.982;2023-05-10T00:42:15;13.30;99.90
6520;DHT22;3293;51.690;5.982;2023-05-10T00:47:18;13.30;99.90
6520;DHT22;3293;51.690;5.982;2023-05-10T00:52:17;13.30;99.90
6520;DHT22;3293;51.690;5.982;2023-05-10T00:57:18;13.30;99.90
6520;DHT22;3293;51.690;5.982;2023-05-10T01:02:18;13.30;99.90
6520;DHT22;3293;51.690;5.982;2023-05-10T01:07:18;13.30;99.90
6520;DHT22;3293;51.690;5.982;2023-05-10T01:12:18;13.30;99.90
6520;DHT22;3293;51.690;5.982;2023-05-10T01:17:18;13.30;99.90
6520;DHT22;3293;51.690;5.982;2023-05-10T01:33:34;13.30;99.90
6520;DHT22;3293;51.690;5.982;2023-05-10T01:38:47;13.30;99.90
6520;DHT22;3293;51.690;5.982;2023-05-10T01:49:16;13.30;99.90
6520;DHT22;3293;51.690;5.982;2023-05-10T01:54:21;13.20;99.90
6520;DHT22;3293;51.690;5.982;2023-05-10T01:59:22;13.30;99.90
6520;DHT22;3293;51.690;5.982;2023-05-10T02:04:28;13.20;99.90
6520;DHT22;3293;51.690;5.982;2023-05-10T02:09:29;13.20;99.90
6520;DHT22;3293;51.690;5.982;2023-05-10T02:14:35;13.20;99.90
6520;DHT22;3293;51.690;5.982;2023-05-10T02:19:38;13.10;99.90
6520;DHT22;3293;51.690;5.982;2023-05-10T02:24:39;13.10;99.90
6520;DHT22;3293;51.690;5.982;2023-05-10T02:29:40;13.10;99.90
6520;DHT22;3293;51.690;5.982;2023-05-10T02:34:41;13.10;99.90
6520;DHT22;3293;51.690;5.982;2023-05-10T02:39:43;13.00;99.90
6520;DHT22;3293;51.690;5.982;2023-05-10T02:44:51;13.10;99.90
6520;DHT22;3293;51.690;5.982;2023-05-10T02:49:53;13.10;99.90
6520;DHT22;3293;51.690;5.982;2023-05-10T02:54:56;13.10;99.90
6520;DHT22;3293;51.690;5.982;2023-05-10T02:59:58;13.10;99.90
6520;DHT22;3293;51.690;5.982;2023-05-10T03:04:59;13.10;99.90
6520;DHT22;3293;51.690;5.982;2023-05-10T03:10:00;13.10;99.90
6520;DHT22;3293;51.690;5.982;2023-05-10T03:15:16;13.10;99.90
6520;DHT22;3293;51.690;5.982;2023-05-10T03:20:25;13.00;99.90
6520;DHT22;3293;51.690;5.982;2023-05-10T03:25:26;13.10;99.90
6520;DHT22;3293;51.690;5.982;2023-05-10T03:30:26;13.00;99.90
6520;DHT22;3293;51.690;5.982;2023-05-10T03:35:26;13.00;99.90
6520;DHT22;3293;51.690;5.982;2023-05-10T03:40:27;13.00;99.90
6520;DHT22;3293;51.690;5.982;2023-05-10T03:45:31;13.10;99.90
6520;DHT22;3293;51.690;5.982;2023-05-10T03:50:31;13.10;99.90
6520;DHT22;3293;51.690;5.982;2023-05-10T03:55:31;13.10;99.90
6520;DHT22;3293;51.690;5.982;2023-05-10T04:00:34;13.10;99.90
6520;DHT22;3293;51.690;5.982;2023-05-10T04:05:35;13.10;99.90
6520;DHT22;3293;51.690;5.982;2023-05-10T04:10:35;13.20;99.90
6520;DHT22;3293;51.690;5.982;2023-05-10T04:15:35;13.10;99.90
6520;DHT22;3293;51.690;5.982;2023-05-10T04:20:35;13.20;99.90
6520;DHT22;3293;51.690;5.982;2023-05-10T04:25:35;13.10;99.90
6520;DHT22;3293;51.690;5.982;2023-05-10T04:30:35;13.20;99.90
6520;DHT22;3293;51.690;5.982;2023-05-10T04:35:35;13.20;99.90
6520;DHT22;3293;51.690;5.982;2023-05-10T04:40:35;13.20;99.90
6520;DHT22;3293;51.690;5.982;2023-05-10T04:45:35;13.20;99.90
6520;DHT22;3293;51.690;5.982;2023-05-10T04:50:36;13.20;99.90
6520;DHT22;3293;51.690;5.982;2023-05-10T04:55:36;13.20;99.90
6520;DHT22;3293;51.690;5.982;2023-05-10T05:00:36;13.20;99.90
6520;DHT22;3293;51.690;5.982;2023-05-10T05:05:36;13.20;99.90
6520;DHT22;3293;51.690;5.982;2023-05-10T05:10:36;13.20;99.90
6520;DHT22;3293;51.690;5.982;2023-05-10T05:15:36;13.20;99.90
6520;DHT22;3293;51.690;5.982;2023-05-10T05:20:37;13.10;99.90
6520;DHT22;3293;51.690;5.982;2023-05-10T05:25:37;13.10;99.90
6520;DHT22;3293;51.690;5.982;2023-05-10T05:30:37;13.10;99.90
6520;DHT22;3293;51.690;5.982;2023-05-10T05:35:37;13.20;99.90
6520;DHT22;3293;51.690;5.982;2023-05-10T05:40:37;13.20;99.90
6520;DHT22;3293;51.690;5.982;2023-05-10T05:45:37;13.30;99.90
6520;DHT22;3293;51.690;5.982;2023-05-10T05:50:37;13.30;99.90
6520;DHT22;3293;51.690;5.982;2023-05-10T05:55:37;13.40;99.90
6520;DHT22;3293;51.690;5.982;2023-05-10T06:00:38;13.40;99.90
6520;DHT22;3293;51.690;5.982;2023-05-10T06:05:38;13.40;99.90
6520;DHT22;3293;51.690;5.982;2023-05-10T06:10:38;13.30;99.90
6520;DHT22;3293;51.690;5.982;2023-05-10T06:15:38;13.20;99.90
6520;DHT22;3293;51.690;5.982;2023-05-10T06:20:38;13.20;99.90
6520;DHT22;3293;51.690;5.982;2023-05-10T06:25:40;13.30;99.90
6520;DHT22;3293;51.690;5.982;2023-05-10T06:30:40;13.40;99.90
6520;DHT22;3293;51.690;5.982;2023-05-10T06:35:40;13.50;99.90
6520;DHT22;3293;51.690;5.982;2023-05-10T06:40:43;13.50;99.90
6520;DHT22;3293;51.690;5.982;2023-05-10T06:45:43;13.80;99.90
6520;DHT22;3293;51.690;5.982;2023-05-10T06:50:43;14.10;99.90
6520;DHT22;3293;51.690;5.982;2023-05-10T06:55:44;14.00;99.90
6520;DHT22;3293;51.690;5.982;2023-05-10T07:00:44;14.50;99.90
6520;DHT22;3293;51.690;5.982;2023-05-10T07:05:46;14.60;99.90
6520;DHT22;3293;51.690;5.982;2023-05-10T07:10:46;14.40;99.90
6520;DHT22;3293;51.690;5.982;2023-05-10T07:15:46;14.20;99.90
6520;DHT22;3293;51.690;5.982;2023-05-10T07:20:47;14.10;99.90
6520;DHT22;3293;51.690;5.982;2023-05-10T07:25:48;14.10;99.90
6520;DHT22;3293;51.690;5.982;2023-05-10T07:30:50;14.00;99.90
6520;DHT22;3293;51.690;5.982;2023-05-10T07:35:50;13.90;99.90
6520;DHT22;3293;51.690;5.982;2023-05-10T07:40:50;13.90;99.90
6520;DHT22;3293;51.690;5.982;2023-05-10T07:45:50;13.90;99.90
6520;DHT22;3293;51.690;5.982;2023-05-10T07:50:50;14.00;99.90
6520;DHT22;3293;51.690;5.982;2023-05-10T07:55:51;14.00;99.90
6520;DHT22;3293;51.690;5.982;2023-05-10T08:00:54;14.10;99.90
6520;DHT22;3293;51.690;5.982;2023-05-10T08:05:54;14.20;99.90
6520;DHT22;3293;51.690;5.982;2023-05-10T08:10:54;14.40;99.90
6520;DHT22;3293;51.690;5.982;2023-05-10T08:15:55;14.40;99.90
6520;DHT22;3293;51.690;5.982;2023-05-10T08:20:55;14.50;99.90
6520;DHT22;3293;51.690;5.982;2023-05-10T08:25:55;14.50;99.90
6520;DHT22;3293;51.690;5.982;2023-05-10T08:30:55;14.30;99.90
6520;DHT22;3293;51.690;5.982;2023-05-10T08:35:55;14.20;99.90
6520;DHT22;3293;51.690;5.982;2023-05-10T08:40:55;14.20;99.90
6520;DHT22;3293;51.690;5.982;2023-05-10T08:46:02;14.10;99.90
6520;DHT22;3293;51.690;5.982;2023-05-10T08:51:04;14.40;99.90
6520;DHT22;3293;51.690;5.982;2023-05-10T08:56:04;14.80;99.90
6520;DHT22;3293;51.690;5.982;2023-05-10T09:01:05;15.20;99.90
6520;DHT22;3293;51.690;5.982;2023-05-10T09:06:05;15.40;99.90
6520;DHT22;3293;51.690;5.982;2023-05-10T09:11:06;15.60;99.90
6520;DHT22;3293;51.690;5.982;2023-05-10T09:16:07;15.60;99.90
6520;DHT22;3293;51.690;5.982;2023-05-10T09:21:08;15.40;99.90
6520;DHT22;3293;51.690;5.982;2023-05-10T09:26:08;15.50;99.90
6520;DHT22;3293;51.690;5.982;2023-05-10T09:31:08;15.80;99.90
6520;DHT22;3293;51.690;5.982;2023-05-10T09:36:08;16.00;99.90
6520;DHT22;3293;51.690;5.982;2023-05-10T09:41:19;16.10;99.90
6520;DHT22;3293;51.690;5.982;2023-05-10T09:46:20;16.30;99.90
6520;DHT22;3293;51.690;5.982;2023-05-10T09:51:20;16.30;99.90
6520;DHT22;3293;51.690;5.982;2023-05-10T09:56:46;16.40;99.90
6520;DHT22;3293;51.690;5.982;2023-05-10T10:01:56;16.30;99.90
6520;DHT22;3293;51.690;5.982;2023-05-10T10:07:01;16.10;99.90
6520;DHT22;3293;51.690;5.982;2023-05-10T10:12:02;15.90;99.90
6520;DHT22;3293;51.690;5.982;2023-05-10T10:17:02;16.00;99.90
6520;DHT22;3293;51.690;5.982;2023-05-10T10:22:02;16.00;99.90
6520;DHT22;3293;51.690;5.982;2023-05-10T10:27:37;15.80;99.90
6520;DHT22;3293;51.690;5.982;2023-05-10T10:38:03;15.30;99.90
6520;DHT22;3293;51.690;5.982;2023-05-10T10:43:25;15.50;99.90
6520;DHT22;3293;51.690;5.982;2023-05-10T10:48:26;15.60;99.90
6520;DHT22;3293;51.690;5.982;2023-05-10T10:53:27;15.80;99.90
6520;DHT22;3293;51.690;5.982;2023-05-10T10:58:31;16.10;99.90
6520;DHT22;3293;51.690;5.982;2023-05-10T11:03:34;16.60;99.90
6520;DHT22;3293;51.690;5.982;2023-05-10T11:08:41;16.50;99.90
6520;DHT22;3293;51.690;5.982;2023-05-10T11:13:45;16.40;99.90
6520;DHT22;3293;51.690;5.982;2023-05-10T11:18:52;16.50;99.90
6520;DHT22;3293;51.690;5.982;2023-05-10T11:23:55;16.50;99.90
6520;DHT22;3293;51.690;5.982;2023-05-10T11:28:56;16.30;99.90
6520;DHT22;3293;51.690;5.982;2023-05-10T11:33:58;16.20;99.90
6520;DHT22;3293;51.690;5.982;2023-05-10T11:38:58;16.20;99.90
6520;DHT22;3293;51.690;5.982;2023-05-10T11:43:59;16.10;99.90
6520;DHT22;3293;51.690;5.982;2023-05-10T11:49:00;16.20;99.90
6520;DHT22;3293;51.690;5.982;2023-05-10T11:54:05;16.50;99.90
6520;DHT22;3293;51.690;5.982;2023-05-10T11:59:07;16.60;99.90
6520;DHT22;3293;51.690;5.982;2023-05-10T12:04:07;17.10;99.90
6520;DHT22;3293;51.690;5.982;2023-05-10T12:09:08;17.40;99.90
6520;DHT22;3293;51.690;5.982;2023-05-10T12:14:08;17.20;99.90
6520;DHT22;3293;51.690;5.982;2023-05-10T12:19:09;17.20;99.90
6520;DHT22;3293;51.690;5.982;2023-05-10T12:24:09;17.40;99.90
6520;DHT22;3293;51.690;5.982;2023-05-10T12:29:18;17.80;99.90
6520;DHT22;3293;51.690;5.982;2023-05-10T12:39:25;18.10;99.90
6520;DHT22;3293;51.690;5.982;2023-05-10T12:44:25;18.50;99.90
6520;DHT22;3293;51.690;5.982;2023-05-10T12:49:25;18.40;99.90
6520;DHT22;3293;51.690;5.982;2023-05-10T12:54:25;17.90;99.90
6520;DHT22;3293;51.690;5.982;2023-05-10T12:59:25;17.80;99.90
6520;DHT22;3293;51.690;5.982;2023-05-10T13:04:25;17.30;99.90
6520;DHT22;3293;51.690;5.982;2023-05-10T13:09:26;16.80;99.90
6520;DHT22;3293;51.690;5.982;2023-05-10T13:14:26;16.40;99.90
6520;DHT22;3293;51.690;5.982;2023-05-10T13:19:26;16.00;99.90
6520;DHT22;3293;51.690;5.982;2023-05-10T13:24:26;15.80;99.90
6520;DHT22;3293;51.690;5.982;2023-05-10T13:29:26;15.70;99.90
6520;DHT22;3293;51.690;5.982;2023-05-10T13:34:26;15.80;99.90
6520;DHT22;3293;51.690;5.982;2023-05-10T13:39:26;16.00;99.90
6520;DHT22;3293;51.690;5.982;2023-05-10T13:44:27;16.20;99.90
6520;DHT22;3293;51.690;5.982;2023-05-10T13:49:27;16.60;99.90
6520;DHT22;3293;51.690;5.982;2023-05-10T13:54:27;17.40;99.90
6520;DHT22;3293;51.690;5.982;2023-05-10T13:59:29;18.00;99.90
6520;DHT22;3293;51.690;5.982;2023-05-10T14:04:31;17.90;99.90
6520;DHT22;3293;51.690;5.982;2023-05-10T14:09:31;17.50;99.90
6520;DHT22;3293;51.690;5.982;2023-05-10T14:14:31;17.00;99.90
6520;DHT22;3293;51.690;5.982;2023-05-10T14:19:31;16.70;99.90
6520;DHT22;3293;51.690;5.982;2023-05-10T14:24:33;16.80;99.90
6520;DHT22;3293;51.690;5.982;2023-05-10T14:29:36;17.10;99.90
6520;DHT22;3293;51.690;5.982;2023-05-10T14:34:36;17.30;99.90
6520;DHT22;3293;51.690;5.982;2023-05-10T14:39:37;17.50;99.90
6520;DHT22;3293;51.690;5.982;2023-05-10T14:44:37;17.70;99.90
6520;DHT22;3293;51.690;5.982;2023-05-10T14:49:37;18.00;99.90
6520;DHT22;3293;51.690;5.982;2023-05-10T14:54:38;18.10;99.90
6520;DHT22;3293;51.690;5.982;2023-05-10T14:59:38;18.30;99.90
6520;DHT22;3293;51.690;5.982;2023-05-10T15:04:38;18.10;99.90
6520;DHT22;3293;51.690;5.982;2023-05-10T15:09:38;17.80;99.90
6520;DHT22;3293;51.690;5.982;2023-05-10T15:14:38;17.70;99.90
6520;DHT22;3293;51.690;5.982;2023-05-10T15:19:38;17.80;99.90
6520;DHT22;3293;51.690;5.982;2023-05-10T15:24:38;17.80;99.90
6520;DHT22;3293;51.690;5.982;2023-05-10T15:29:38;18.50;99.90
6520;DHT22;3293;51.690;5.982;2023-05-10T15:34:38;18.80;99.90
6520;DHT22;3293;51.690;5.982;2023-05-10T15:39:38;18.90;99.90
6520;DHT22;3293;51.690;5.982;2023-05-10T15:44:39;18.70;99.90
6520;DHT22;3293;51.690;5.982;2023-05-10T15:49:39;18.40;99.90
6520;DHT22;3293;51.690;5.982;2023-05-10T15:54:39;18.20;99.90
6520;DHT22;3293;51.690;5.982;2023-05-10T15:59:39;17.70;99.90
6520;DHT22;3293;51.690;5.982;2023-05-10T16:04:39;17.50;99.90
6520;DHT22;3293;51.690;5.982;2023-05-10T16:09:38;17.60;99.90
6520;DHT22;3293;51.690;5.982;2023-05-10T16:14:39;17.60;99.90
6520;DHT22;3293;51.690;5.982;2023-05-10T16:19:39;17.80;99.90
6520;DHT22;3293;51.690;5.982;2023-05-10T16:24:40;18.10;99.90
6520;DHT22;3293;51.690;5.982;2023-05-10T16:29:41;18.10;99.90
6520;DHT22;3293;51.690;5.982;2023-05-10T16:34:41;18.00;99.90
6520;DHT22;3293;51.690;5.982;2023-05-10T16:39:41;17.80;99.90
6520;DHT22;3293;51.690;5.982;2023-05-10T16:44:40;17.50;99.90
6520;DHT22;3293;51.690;5.982;2023-05-10T16:49:41;17.40;99.90
6520;DHT22;3293;51.690;5.982;2023-05-10T16:54:41;17.20;99.90
6520;DHT22;3293;51.690;5.982;2023-05-10T16:59:41;17.10;99.90
6520;DHT22;3293;51.690;5.982;2023-05-10T17:04:42;16.90;99.90
6520;DHT22;3293;51.690;5.982;2023-05-10T17:09:42;16.90;99.90
6520;DHT22;3293;51.690;5.982;2023-05-10T17:14:42;16.90;99.90
6520;DHT22;3293;51.690;5.982;2023-05-10T17:19:45;16.80;99.90
6520;DHT22;3293;51.690;5.982;2023-05-10T17:24:45;16.70;99.90
6520;DHT22;3293;51.690;5.982;2023-05-10T17:29:45;16.80;99.90
6520;DHT22;3293;51.690;5.982;2023-05-10T17:34:45;16.80;99.90
6520;DHT22;3293;51.690;5.982;2023-05-10T17:39:45;16.80;99.90
6520;DHT22;3293;51.690;5.982;2023-05-10T17:44:45;16.80;99.90
6520;DHT22;3293;51.690;5.982;2023-05-10T17:49:45;16.70;99.90
6520;DHT22;3293;51.690;5.982;2023-05-10T17:54:45;16.70;99.90
6520;DHT22;3293;51.690;5.982;2023-05-10T17:59:46;16.50;99.90
6520;DHT22;3293;51.690;5.982;2023-05-10T18:04:46;16.30;99.90
6520;DHT22;3293;51.690;5.982;2023-05-10T18:09:48;16.00;99.90
6520;DHT22;3293;51.690;5.982;2023-05-10T18:14:47;15.90;99.90
6520;DHT22;3293;51.690;5.982;2023-05-10T18:19:48;15.70;99.90
6520;DHT22;3293;51.690;5.982;2023-05-10T18:24:48;15.60;99.90
6520;DHT22;3293;51.690;5.982;2023-05-10T18:29:48;15.50;99.90
6520;DHT22;3293;51.690;5.982;2023-05-10T18:34:49;15.40;99.90
6520;DHT22;3293;51.690;5.982;2023-05-10T18:39:50;15.30;99.90
6520;DHT22;3293;51.690;5.982;2023-05-10T18:44:50;15.10;99.90
6520;DHT22;3293;51.690;5.982;2023-05-10T18:49:51;15.00;99.90
6520;DHT22;3293;51.690;5.982;2023-05-10T18:54:51;14.90;99.90
6520;DHT22;3293;51.690;5.982;2023-05-10T18:59:52;14.90;99.90
6520;DHT22;3293;51.690;5.982;2023-05-10T19:04:53;14.90;99.90
6520;DHT22;3293;51.690;5.982;2023-05-10T19:09:53;14.90;99.90
6520;DHT22;3293;51.690;5.982;2023-05-10T19:14:54;14.90;99.90
6520;DHT22;3293;51.690;5.982;2023-05-10T19:19:54;14.80;99.90
6520;DHT22;3293;51.690;5.982;2023-05-10T19:24:54;14.80;99.90
6520;DHT22;3293;51.690;5.982;2023-05-10T19:29:54;14.60;99.90
6520;DHT22;3293;51.690;5.982;2023-05-10T19:34:54;14.50;99.90
6520;DHT22;3293;51.690;5.982;2023-05-10T19:39:55;14.30;99.90
6520;DHT22;3293;51.690;5.982;2023-05-10T19:44:56;14.20;99.90
6520;DHT22;3293;51.690;5.982;2023-05-10T19:49:56;14.00;99.90
6520;DHT22;3293;51.690;5.982;2023-05-10T19:54:57;13.90;99.90
6520;DHT22;3293;51.690;5.982;2023-05-10T19:59:57;13.80;99.90
6520;DHT22;3293;51.690;5.982;2023-05-10T20:04:57;13.70;99.90
6520;DHT22;3293;51.690;5.982;2023-05-10T20:09:58;13.60;99.90
6520;DHT22;3293;51.690;5.982;2023-05-10T20:14:58;13.60;99.90
6520;DHT22;3293;51.690;5.982;2023-05-10T20:19:58;13.50;99.90
6520;DHT22;3293;51.690;5.982;2023-05-10T20:24:58;13.40;99.90
6520;DHT22;3293;51.690;5.982;2023-05-10T20:29:58;13.40;99.90
6520;DHT22;3293;51.690;5.982;2023-05-10T20:34:59;13.20;99.90
6520;DHT22;3293;51.690;5.982;2023-05-10T20:39:59;13.10;99.90
6520;DHT22;3293;51.690;5.982;2023-05-10T20:45:00;13.10;99.90
6520;DHT22;3293;51.690;5.982;2023-05-10T20:50:00;13.10;99.90
6520;DHT22;3293;51.690;5.982;2023-05-10T20:55:01;13.00;99.90
6520;DHT22;3293;51.690;5.982;2023-05-10T21:00:01;13.00;99.90
6520;DHT22;3293;51.690;5.982;2023-05-10T21:05:02;13.00;99.90
6520;DHT22;3293;51.690;5.982;2023-05-10T21:10:03;13.00;99.90
6520;DHT22;3293;51.690;5.982;2023-05-10T21:15:03;12.90;99.90
6520;DHT22;3293;51.690;5.982;2023-05-10T21:20:03;12.90;99.90
6520;DHT22;3293;51.690;5.982;2023-05-10T21:25:04;12.80;99.90
6520;DHT22;3293;51.690;5.982;2023-05-10T21:30:05;12.80;99.90
6520;DHT22;3293;51.690;5.982;2023-05-10T21:35:06;12.80;99.90
6520;DHT22;3293;51.690;5.982;2023-05-10T21:40:07;12.70;99.90
6520;DHT22;3293;51.690;5.982;2023-05-10T21:45:07;12.70;99.90
6520;DHT22;3293;51.690;5.982;2023-05-10T21:50:08;12.70;99.90
6520;DHT22;3293;51.690;5.982;2023-05-10T21:55:11;12.70;99.90
6520;DHT22;3293;51.690;5.982;2023-05-10T22:00:12;12.70;99.90
6520;DHT22;3293;51.690;5.982;2023-05-10T22:05:12;12.80;99.90
6520;DHT22;3293;51.690;5.982;2023-05-10T22:10:12;12.70;99.90
6520;DHT22;3293;51.690;5.982;2023-05-10T22:15:13;12.80;99.90
6520;DHT22;3293;51.690;5.982;2023-05-10T22:20:13;12.80;99.90
6520;DHT22;3293;51.690;5.982;2023-05-10T22:25:13;12.80;99.90
6520;DHT22;3293;51.690;5.982;2023-05-10T22:30:14;12.80;99.90
6520;DHT22;3293;51.690;5.982;2023-05-10T22:35:14;12.80;99.90
6520;DHT22;3293;51.690;5.982;2023-05-10T22:40:15;12.90;99.90
6520;DHT22;3293;51.690;5.982;2023-05-10T22:45:15;12.90;99.90
6520;DHT22;3293;51.690;5.982;2023-05-10T22:50:15;13.00;99.90
6520;DHT22;3293;51.690;5.982;2023-05-10T22:55:16;13.00;99.90
6520;DHT22;3293;51.690;5.982;2023-05-10T23:00:16;13.00;99.90
6520;DHT22;3293;51.690;5.982;2023-05-10T23:05:16;13.00;99.90
6520;DHT22;3293;51.690;5.982;2023-05-10T23:10:18;13.00;99.90
6520;DHT22;3293;51.690;5.982;2023-05-10T23:15:18;13.00;99.90
6520;DHT22;3293;51.690;5.982;2023-05-10T23:20:19;13.00;99.90
6520;DHT22;3293;51.690;5.982;2023-05-10T23:25:18;13.00;99.90
6520;DHT22;3293;51.690;5.982;2023-05-10T23:30:19;13.00;99.90
6520;DHT22;3293;51.690;5.982;2023-05-10T23:35:19;13.00;99.90
6520;DHT22;3293;51.690;5.982;2023-05-10T23:40:19;13.00;99.90
6520;DHT22;3293;51.690;5.982;2023-05-10T23:45:19;13.00;99.90
6520;DHT22;3293;51.690;5.982;2023-05-10T23:50:19;13.00;99.90
6520;DHT22;3293;51.690;5.982;2023-05-10T23:55:19;13.00;99.90
